sensor_id;sensor_type;location;lat;lon;timestamp;P1;durP1;ratioP1;P2;durP2;ratioP2
9465;SDS011;4771;48.726;9.006;2023-07-09T00:01:40;5.68;;;3.00;;
9465;SDS011;4771;48.726;9.006;2023-07-09T00:04:08;5.85;;;2.90;;
9465;SDS011;4771;48.726;9.006;2023-07-09T00:06:37;6.07;;;3.40;;
9465;SDS011;4771;48.726;9.006;2023-07-09T00:09:04;5.45;;;3.05;;
9465;SDS011;4771;48.726;9.006;2023-07-09T00:11:32;4.47;;;3.00;;
9465;SDS011;4771;48.726;9.006;2023-07-09T00:13:59;4.38;;;2.72;;
9465;SDS011;4771;48.726;9.006;2023-07-09T00:16:26;4.70;;;2.90;;
9465;SDS011;4771;48.726;9.006;2023-07-09T00:18:53;6.95;;;2.90;;
9465;SDS011;4771;48.726;9.006;2023-07-09T00:21:20;5.03;;;2.90;;
9465;SDS011;4771;48.726;9.006;2023-07-09T00:23:49;4.80;;;2.90;;
9465;SDS011;4771;48.726;9.006;2023-07-09T00:26:16;4.40;;;3.20;;
9465;SDS011;4771;48.726;9.006;2023-07-09T00:28:45;5.63;;;3.20;;
9465;SDS011;4771;48.726;9.006;2023-07-09T00:31:13;5.82;;;3.30;;
9465;SDS011;4771;48.726;9.006;2023-07-09T00:33:42;7.05;;;3.42;;
9465;SDS011;4771;48.726;9.006;2023-07-09T00:36:11;4.05;;;3.00;;
9465;SDS011;4771;48.726;9.006;2023-07-09T00:38:40;5.05;;;3.40;;
9465;SDS011;4771;48.726;9.006;2023-07-09T00:41:15;6.05;;;3.38;;
9465;SDS011;4771;48.726;9.006;2023-07-09T00:43:44;5.13;;;3.00;;
9465;SDS011;4771;48.726;9.006;2023-07-09T00:49:30;5.32;;;3.42;;
9465;SDS011;4771;48.726;9.006;2023-07-09T00:52:00;6.18;;;3.40;;
9465;SDS011;4771;48.726;9.006;2023-07-09T00:54:30;5.97;;;3.17;;
9465;SDS011;4771;48.726;9.006;2023-07-09T00:57:06;7.93;;;3.35;;
9465;SDS011;4771;48.726;9.006;2023-07-09T00:59:42;5.40;;;3.72;;
9465;SDS011;4771;48.726;9.006;2023-07-09T01:02:10;7.07;;;3.60;;
9465;SDS011;4771;48.726;9.006;2023-07-09T01:04:37;4.50;;;3.47;;
9465;SDS011;4771;48.726;9.006;2023-07-09T01:07:05;9.38;;;3.80;;
9465;SDS011;4771;48.726;9.006;2023-07-09T01:09:35;5.78;;;3.78;;
9465;SDS011;4771;48.726;9.006;2023-07-09T01:12:07;5.40;;;3.60;;
9465;SDS011;4771;48.726;9.006;2023-07-09T01:14:36;5.63;;;3.63;;
9465;SDS011;4771;48.726;9.006;2023-07-09T01:17:04;6.65;;;3.85;;
9465;SDS011;4771;48.726;9.006;2023-07-09T01:19:37;5.65;;;4.03;;
9465;SDS011;4771;48.726;9.006;2023-07-09T01:22:10;5.50;;;4.00;;
9465;SDS011;4771;48.726;9.006;2023-07-09T01:24:52;5.35;;;3.63;;
9465;SDS011;4771;48.726;9.006;2023-07-09T01:27:22;5.07;;;3.67;;
9465;SDS011;4771;48.726;9.006;2023-07-09T01:29:52;6.65;;;4.03;;
9465;SDS011;4771;48.726;9.006;2023-07-09T01:32:20;5.40;;;4.00;;
9465;SDS011;4771;48.726;9.006;2023-07-09T01:34:49;5.00;;;4.03;;
9465;SDS011;4771;48.726;9.006;2023-07-09T01:37:20;4.57;;;3.80;;
9465;SDS011;4771;48.726;9.006;2023-07-09T01:39:48;5.18;;;3.88;;
9465;SDS011;4771;48.726;9.006;2023-07-09T01:42:16;7.13;;;3.95;;
9465;SDS011;4771;48.726;9.006;2023-07-09T01:44:45;4.70;;;3.88;;
9465;SDS011;4771;48.726;9.006;2023-07-09T01:47:12;5.30;;;4.35;;
9465;SDS011;4771;48.726;9.006;2023-07-09T01:49:39;5.60;;;4.30;;
9465;SDS011;4771;48.726;9.006;2023-07-09T01:52:06;5.40;;;4.18;;
9465;SDS011;4771;48.726;9.006;2023-07-09T01:54:35;5.22;;;3.95;;
9465;SDS011;4771;48.726;9.006;2023-07-09T01:57:13;6.85;;;4.18;;
9465;SDS011;4771;48.726;9.006;2023-07-09T01:59:44;7.15;;;4.20;;
9465;SDS011;4771;48.726;9.006;2023-07-09T02:02:11;6.25;;;3.97;;
9465;SDS011;4771;48.726;9.006;2023-07-09T02:04:44;4.72;;;4.00;;
9465;SDS011;4771;48.726;9.006;2023-07-09T02:07:12;8.00;;;3.92;;
9465;SDS011;4771;48.726;9.006;2023-07-09T02:09:41;6.97;;;3.53;;
9465;SDS011;4771;48.726;9.006;2023-07-09T02:12:08;5.20;;;3.80;;
9465;SDS011;4771;48.726;9.006;2023-07-09T02:14:36;5.22;;;3.58;;
9465;SDS011;4771;48.726;9.006;2023-07-09T02:17:03;5.10;;;4.00;;
9465;SDS011;4771;48.726;9.006;2023-07-09T02:19:30;4.75;;;3.50;;
9465;SDS011;4771;48.726;9.006;2023-07-09T02:21:57;7.03;;;3.90;;
9465;SDS011;4771;48.726;9.006;2023-07-09T02:24:24;5.20;;;3.72;;
9465;SDS011;4771;48.726;9.006;2023-07-09T02:26:54;4.45;;;3.83;;
9465;SDS011;4771;48.726;9.006;2023-07-09T02:29:21;6.30;;;3.80;;
9465;SDS011;4771;48.726;9.006;2023-07-09T02:31:48;5.85;;;3.75;;
9465;SDS011;4771;48.726;9.006;2023-07-09T02:34:17;5.88;;;3.83;;
9465;SDS011;4771;48.726;9.006;2023-07-09T02:36:44;6.88;;;4.13;;
9465;SDS011;4771;48.726;9.006;2023-07-09T02:39:11;7.40;;;4.30;;
9465;SDS011;4771;48.726;9.006;2023-07-09T02:41:39;5.15;;;3.45;;
9465;SDS011;4771;48.726;9.006;2023-07-09T02:44:08;5.47;;;3.72;;
9465;SDS011;4771;48.726;9.006;2023-07-09T02:46:35;4.18;;;3.40;;
9465;SDS011;4771;48.726;9.006;2023-07-09T02:49:03;5.85;;;3.45;;
9465;SDS011;4771;48.726;9.006;2023-07-09T02:51:31;4.88;;;3.50;;
9465;SDS011;4771;48.726;9.006;2023-07-09T02:53:59;5.13;;;3.70;;
9465;SDS011;4771;48.726;9.006;2023-07-09T02:56:27;6.60;;;4.05;;
9465;SDS011;4771;48.726;9.006;2023-07-09T02:58:53;4.32;;;3.53;;
9465;SDS011;4771;48.726;9.006;2023-07-09T03:01:22;6.95;;;4.03;;
9465;SDS011;4771;48.726;9.006;2023-07-09T03:03:50;8.60;;;3.60;;
9465;SDS011;4771;48.726;9.006;2023-07-09T03:06:18;5.85;;;3.78;;
9465;SDS011;4771;48.726;9.006;2023-07-09T03:08:46;7.45;;;4.00;;
9465;SDS011;4771;48.726;9.006;2023-07-09T03:11:13;7.25;;;4.00;;
9465;SDS011;4771;48.726;9.006;2023-07-09T03:13:41;5.35;;;4.00;;
9465;SDS011;4771;48.726;9.006;2023-07-09T03:16:08;5.78;;;3.55;;
9465;SDS011;4771;48.726;9.006;2023-07-09T03:18:37;4.93;;;3.70;;
9465;SDS011;4771;48.726;9.006;2023-07-09T03:21:04;5.45;;;3.75;;
9465;SDS011;4771;48.726;9.006;2023-07-09T03:23:31;4.03;;;3.40;;
9465;SDS011;4771;48.726;9.006;2023-07-09T03:25:58;6.53;;;3.80;;
9465;SDS011;4771;48.726;9.006;2023-07-09T03:28:25;4.45;;;3.80;;
9465;SDS011;4771;48.726;9.006;2023-07-09T03:30:53;5.03;;;3.38;;
9465;SDS011;4771;48.726;9.006;2023-07-09T03:33:21;5.22;;;3.50;;
9465;SDS011;4771;48.726;9.006;2023-07-09T03:35:50;5.88;;;3.72;;
9465;SDS011;4771;48.726;9.006;2023-07-09T03:38:18;6.13;;;3.47;;
9465;SDS011;4771;48.726;9.006;2023-07-09T03:40:45;5.50;;;3.58;;
9465;SDS011;4771;48.726;9.006;2023-07-09T03:43:12;8.35;;;3.97;;
9465;SDS011;4771;48.726;9.006;2023-07-09T03:45:39;7.53;;;4.32;;
9465;SDS011;4771;48.726;9.006;2023-07-09T03:48:05;5.72;;;3.65;;
9465;SDS011;4771;48.726;9.006;2023-07-09T03:50:32;5.32;;;3.65;;
9465;SDS011;4771;48.726;9.006;2023-07-09T03:53:01;6.88;;;3.95;;
9465;SDS011;4771;48.726;9.006;2023-07-09T03:55:27;6.07;;;3.67;;
9465;SDS011;4771;48.726;9.006;2023-07-09T03:57:54;4.35;;;3.58;;
9465;SDS011;4771;48.726;9.006;2023-07-09T04:00:22;4.40;;;3.80;;
9465;SDS011;4771;48.726;9.006;2023-07-09T04:02:49;5.53;;;3.50;;
9465;SDS011;4771;48.726;9.006;2023-07-09T04:05:17;5.32;;;3.63;;
9465;SDS011;4771;48.726;9.006;2023-07-09T04:07:44;5.60;;;3.80;;
9465;SDS011;4771;48.726;9.006;2023-07-09T04:10:13;6.20;;;3.78;;
9465;SDS011;4771;48.726;9.006;2023-07-09T04:12:40;6.15;;;3.70;;
9465;SDS011;4771;48.726;9.006;2023-07-09T04:15:07;7.40;;;4.05;;
9465;SDS011;4771;48.726;9.006;2023-07-09T04:17:34;6.97;;;4.10;;
9465;SDS011;4771;48.726;9.006;2023-07-09T04:20:01;5.53;;;3.70;;
9465;SDS011;4771;48.726;9.006;2023-07-09T04:22:32;6.13;;;3.70;;
9465;SDS011;4771;48.726;9.006;2023-07-09T04:24:59;8.90;;;4.03;;
9465;SDS011;4771;48.726;9.006;2023-07-09T04:27:30;5.93;;;3.78;;
9465;SDS011;4771;48.726;9.006;2023-07-09T04:29:57;6.47;;;3.70;;
9465;SDS011;4771;48.726;9.006;2023-07-09T04:32:24;5.35;;;3.88;;
9465;SDS011;4771;48.726;9.006;2023-07-09T04:34:51;6.25;;;4.07;;
9465;SDS011;4771;48.726;9.006;2023-07-09T04:37:18;5.70;;;3.90;;
9465;SDS011;4771;48.726;9.006;2023-07-09T04:39:45;7.82;;;4.18;;
9465;SDS011;4771;48.726;9.006;2023-07-09T04:42:14;6.03;;;4.13;;
9465;SDS011;4771;48.726;9.006;2023-07-09T04:44:43;5.97;;;3.80;;
9465;SDS011;4771;48.726;9.006;2023-07-09T04:47:11;6.88;;;4.00;;
9465;SDS011;4771;48.726;9.006;2023-07-09T04:49:38;5.78;;;4.18;;
9465;SDS011;4771;48.726;9.006;2023-07-09T04:52:06;5.25;;;3.97;;
9465;SDS011;4771;48.726;9.006;2023-07-09T04:54:36;7.40;;;4.05;;
9465;SDS011;4771;48.726;9.006;2023-07-09T04:57:04;5.68;;;4.10;;
9465;SDS011;4771;48.726;9.006;2023-07-09T04:59:31;6.05;;;4.07;;
9465;SDS011;4771;48.726;9.006;2023-07-09T05:02:00;6.88;;;4.22;;
9465;SDS011;4771;48.726;9.006;2023-07-09T05:04:26;5.63;;;4.07;;
9465;SDS011;4771;48.726;9.006;2023-07-09T05:06:53;5.07;;;4.00;;
9465;SDS011;4771;48.726;9.006;2023-07-09T05:09:20;5.95;;;4.15;;
9465;SDS011;4771;48.726;9.006;2023-07-09T05:11:48;9.63;;;3.78;;
9465;SDS011;4771;48.726;9.006;2023-07-09T05:14:15;6.82;;;4.13;;
9465;SDS011;4771;48.726;9.006;2023-07-09T05:16:42;5.35;;;4.25;;
9465;SDS011;4771;48.726;9.006;2023-07-09T05:19:11;8.00;;;4.22;;
9465;SDS011;4771;48.726;9.006;2023-07-09T05:21:39;8.18;;;4.35;;
9465;SDS011;4771;48.726;9.006;2023-07-09T05:24:06;6.03;;;4.53;;
9465;SDS011;4771;48.726;9.006;2023-07-09T05:26:33;7.68;;;5.03;;
9465;SDS011;4771;48.726;9.006;2023-07-09T05:29:00;7.88;;;5.50;;
9465;SDS011;4771;48.726;9.006;2023-07-09T05:31:28;6.97;;;5.03;;
9465;SDS011;4771;48.726;9.006;2023-07-09T05:33:55;6.75;;;4.57;;
9465;SDS011;4771;48.726;9.006;2023-07-09T05:36:23;7.30;;;4.35;;
9465;SDS011;4771;48.726;9.006;2023-07-09T05:38:50;8.43;;;4.30;;
9465;SDS011;4771;48.726;9.006;2023-07-09T05:41:17;9.48;;;4.75;;
9465;SDS011;4771;48.726;9.006;2023-07-09T05:43:44;5.50;;;3.90;;
9465;SDS011;4771;48.726;9.006;2023-07-09T05:46:11;6.70;;;4.65;;
9465;SDS011;4771;48.726;9.006;2023-07-09T05:48:39;6.97;;;4.10;;
9465;SDS011;4771;48.726;9.006;2023-07-09T05:51:06;7.50;;;5.03;;
9465;SDS011;4771;48.726;9.006;2023-07-09T05:53:34;6.03;;;4.20;;
9465;SDS011;4771;48.726;9.006;2023-07-09T05:56:01;6.20;;;3.95;;
9465;SDS011;4771;48.726;9.006;2023-07-09T05:58:28;8.88;;;4.03;;
9465;SDS011;4771;48.726;9.006;2023-07-09T06:00:55;6.32;;;4.47;;
9465;SDS011;4771;48.726;9.006;2023-07-09T06:03:23;6.68;;;4.40;;
9465;SDS011;4771;48.726;9.006;2023-07-09T06:05:52;6.45;;;4.32;;
9465;SDS011;4771;48.726;9.006;2023-07-09T06:08:19;6.07;;;4.00;;
9465;SDS011;4771;48.726;9.006;2023-07-09T06:10:54;12.18;;;5.93;;
9465;SDS011;4771;48.726;9.006;2023-07-09T06:13:22;9.32;;;4.43;;
9465;SDS011;4771;48.726;9.006;2023-07-09T06:15:50;5.75;;;4.32;;
9465;SDS011;4771;48.726;9.006;2023-07-09T06:18:19;5.65;;;3.85;;
9465;SDS011;4771;48.726;9.006;2023-07-09T06:20:47;5.35;;;3.95;;
9465;SDS011;4771;48.726;9.006;2023-07-09T06:23:15;5.90;;;3.80;;
9465;SDS011;4771;48.726;9.006;2023-07-09T06:25:42;8.68;;;4.43;;
9465;SDS011;4771;48.726;9.006;2023-07-09T06:28:13;6.53;;;4.10;;
9465;SDS011;4771;48.726;9.006;2023-07-09T06:30:41;5.75;;;4.05;;
9465;SDS011;4771;48.726;9.006;2023-07-09T06:33:08;5.70;;;3.72;;
9465;SDS011;4771;48.726;9.006;2023-07-09T06:35:35;7.07;;;4.05;;
9465;SDS011;4771;48.726;9.006;2023-07-09T06:38:02;8.57;;;4.10;;
9465;SDS011;4771;48.726;9.006;2023-07-09T06:40:29;5.88;;;4.15;;
9465;SDS011;4771;48.726;9.006;2023-07-09T06:42:56;4.82;;;3.50;;
9465;SDS011;4771;48.726;9.006;2023-07-09T06:45:25;5.70;;;3.92;;
9465;SDS011;4771;48.726;9.006;2023-07-09T06:47:52;4.75;;;3.85;;
9465;SDS011;4771;48.726;9.006;2023-07-09T06:50:19;5.35;;;3.90;;
9465;SDS011;4771;48.726;9.006;2023-07-09T06:52:46;5.47;;;3.72;;
9465;SDS011;4771;48.726;9.006;2023-07-09T06:55:13;4.93;;;3.55;;
9465;SDS011;4771;48.726;9.006;2023-07-09T06:57:39;6.13;;;3.60;;
9465;SDS011;4771;48.726;9.006;2023-07-09T07:00:07;8.48;;;3.97;;
9465;SDS011;4771;48.726;9.006;2023-07-09T07:02:36;6.70;;;3.80;;
9465;SDS011;4771;48.726;9.006;2023-07-09T07:05:03;6.50;;;3.95;;
9465;SDS011;4771;48.726;9.006;2023-07-09T07:07:30;4.95;;;3.67;;
9465;SDS011;4771;48.726;9.006;2023-07-09T07:09:58;6.20;;;3.70;;
9465;SDS011;4771;48.726;9.006;2023-07-09T07:12:25;7.05;;;3.38;;
9465;SDS011;4771;48.726;9.006;2023-07-09T07:14:53;4.95;;;3.83;;
9465;SDS011;4771;48.726;9.006;2023-07-09T07:17:20;9.95;;;7.53;;
9465;SDS011;4771;48.726;9.006;2023-07-09T07:19:49;4.53;;;3.85;;
9465;SDS011;4771;48.726;9.006;2023-07-09T07:22:16;5.47;;;3.95;;
9465;SDS011;4771;48.726;9.006;2023-07-09T07:24:43;7.70;;;3.65;;
9465;SDS011;4771;48.726;9.006;2023-07-09T07:27:10;5.97;;;3.60;;
9465;SDS011;4771;48.726;9.006;2023-07-09T07:29:36;8.00;;;3.70;;
9465;SDS011;4771;48.726;9.006;2023-07-09T07:32:04;4.97;;;3.85;;
9465;SDS011;4771;48.726;9.006;2023-07-09T07:34:31;5.32;;;3.80;;
9465;SDS011;4771;48.726;9.006;2023-07-09T07:36:59;9.23;;;3.63;;
9465;SDS011;4771;48.726;9.006;2023-07-09T07:39:26;6.20;;;3.65;;
9465;SDS011;4771;48.726;9.006;2023-07-09T07:41:53;6.22;;;3.10;;
9465;SDS011;4771;48.726;9.006;2023-07-09T07:44:21;5.72;;;3.45;;
9465;SDS011;4771;48.726;9.006;2023-07-09T07:46:47;8.70;;;3.60;;
9465;SDS011;4771;48.726;9.006;2023-07-09T07:49:14;4.70;;;3.45;;
9465;SDS011;4771;48.726;9.006;2023-07-09T07:51:41;6.97;;;3.75;;
9465;SDS011;4771;48.726;9.006;2023-07-09T07:54:10;5.45;;;3.40;;
9465;SDS011;4771;48.726;9.006;2023-07-09T07:56:37;5.43;;;3.78;;
9465;SDS011;4771;48.726;9.006;2023-07-09T07:59:04;5.75;;;3.30;;
9465;SDS011;4771;48.726;9.006;2023-07-09T08:01:31;7.47;;;3.40;;
9465;SDS011;4771;48.726;9.006;2023-07-09T08:04:00;4.95;;;3.40;;
9465;SDS011;4771;48.726;9.006;2023-07-09T08:06:27;6.35;;;3.13;;
9465;SDS011;4771;48.726;9.006;2023-07-09T08:08:54;5.07;;;3.40;;
9465;SDS011;4771;48.726;9.006;2023-07-09T08:11:22;5.32;;;2.97;;
9465;SDS011;4771;48.726;9.006;2023-07-09T08:13:49;6.57;;;3.42;;
9465;SDS011;4771;48.726;9.006;2023-07-09T08:16:16;4.53;;;3.33;;
9465;SDS011;4771;48.726;9.006;2023-07-09T08:18:43;5.20;;;2.90;;
9465;SDS011;4771;48.726;9.006;2023-07-09T08:21:10;4.18;;;3.15;;
9465;SDS011;4771;48.726;9.006;2023-07-09T08:23:37;8.10;;;3.40;;
9465;SDS011;4771;48.726;9.006;2023-07-09T08:26:05;5.80;;;3.33;;
9465;SDS011;4771;48.726;9.006;2023-07-09T08:28:34;7.05;;;3.05;;
9465;SDS011;4771;48.726;9.006;2023-07-09T08:31:01;5.80;;;3.30;;
9465;SDS011;4771;48.726;9.006;2023-07-09T08:33:28;5.03;;;2.97;;
9465;SDS011;4771;48.726;9.006;2023-07-09T08:35:56;4.72;;;3.42;;
9465;SDS011;4771;48.726;9.006;2023-07-09T08:38:23;7.53;;;3.28;;
9465;SDS011;4771;48.726;9.006;2023-07-09T08:40:54;4.30;;;2.97;;
9465;SDS011;4771;48.726;9.006;2023-07-09T08:43:28;4.68;;;3.13;;
9465;SDS011;4771;48.726;9.006;2023-07-09T08:46:02;4.72;;;3.40;;
9465;SDS011;4771;48.726;9.006;2023-07-09T08:48:34;4.63;;;3.28;;
9465;SDS011;4771;48.726;9.006;2023-07-09T08:51:07;6.28;;;3.63;;
9465;SDS011;4771;48.726;9.006;2023-07-09T08:53:38;6.72;;;3.30;;
9465;SDS011;4771;48.726;9.006;2023-07-09T08:56:10;5.57;;;3.20;;
9465;SDS011;4771;48.726;9.006;2023-07-09T08:58:40;6.38;;;3.40;;
9465;SDS011;4771;48.726;9.006;2023-07-09T09:01:12;4.13;;;2.72;;
9465;SDS011;4771;48.726;9.006;2023-07-09T09:03:44;5.13;;;3.38;;
9465;SDS011;4771;48.726;9.006;2023-07-09T09:06:15;4.55;;;3.35;;
9465;SDS011;4771;48.726;9.006;2023-07-09T09:08:46;4.78;;;3.00;;
9465;SDS011;4771;48.726;9.006;2023-07-09T09:11:21;4.63;;;2.95;;
9465;SDS011;4771;48.726;9.006;2023-07-09T09:13:59;5.32;;;3.60;;
9465;SDS011;4771;48.726;9.006;2023-07-09T09:16:30;6.25;;;3.22;;
9465;SDS011;4771;48.726;9.006;2023-07-09T09:19:00;5.10;;;2.65;;
9465;SDS011;4771;48.726;9.006;2023-07-09T09:21:28;5.55;;;3.40;;
9465;SDS011;4771;48.726;9.006;2023-07-09T09:24:02;4.82;;;3.25;;
9465;SDS011;4771;48.726;9.006;2023-07-09T09:26:39;5.80;;;3.13;;
9465;SDS011;4771;48.726;9.006;2023-07-09T09:29:11;4.40;;;3.42;;
9465;SDS011;4771;48.726;9.006;2023-07-09T09:31:40;4.20;;;3.13;;
9465;SDS011;4771;48.726;9.006;2023-07-09T09:34:17;5.03;;;3.17;;
9465;SDS011;4771;48.726;9.006;2023-07-09T09:36:44;5.43;;;3.30;;
9465;SDS011;4771;48.726;9.006;2023-07-09T09:39:11;3.55;;;2.80;;
9465;SDS011;4771;48.726;9.006;2023-07-09T09:41:38;5.30;;;3.15;;
9465;SDS011;4771;48.726;9.006;2023-07-09T09:44:16;6.30;;;4.25;;
9465;SDS011;4771;48.726;9.006;2023-07-09T09:46:44;4.80;;;2.95;;
9465;SDS011;4771;48.726;9.006;2023-07-09T09:49:12;7.28;;;5.10;;
9465;SDS011;4771;48.726;9.006;2023-07-09T09:51:40;4.18;;;2.90;;
9465;SDS011;4771;48.726;9.006;2023-07-09T09:54:11;5.65;;;3.38;;
9465;SDS011;4771;48.726;9.006;2023-07-09T09:56:43;8.82;;;3.92;;
9465;SDS011;4771;48.726;9.006;2023-07-09T09:59:21;5.95;;;3.50;;
9465;SDS011;4771;48.726;9.006;2023-07-09T10:01:56;6.80;;;3.33;;
9465;SDS011;4771;48.726;9.006;2023-07-09T10:04:25;4.82;;;3.05;;
9465;SDS011;4771;48.726;9.006;2023-07-09T10:06:53;4.50;;;2.60;;
9465;SDS011;4771;48.726;9.006;2023-07-09T10:09:25;5.60;;;3.13;;
9465;SDS011;4771;48.726;9.006;2023-07-09T10:12:02;5.00;;;2.80;;
9465;SDS011;4771;48.726;9.006;2023-07-09T10:14:40;6.10;;;3.10;;
9465;SDS011;4771;48.726;9.006;2023-07-09T10:17:15;5.53;;;3.10;;
9465;SDS011;4771;48.726;9.006;2023-07-09T10:19:49;6.03;;;2.95;;
9465;SDS011;4771;48.726;9.006;2023-07-09T10:22:30;4.30;;;3.25;;
9465;SDS011;4771;48.726;9.006;2023-07-09T10:25:10;4.55;;;3.05;;
9465;SDS011;4771;48.726;9.006;2023-07-09T10:27:50;4.43;;;3.10;;
9465;SDS011;4771;48.726;9.006;2023-07-09T10:30:35;5.18;;;3.25;;
9465;SDS011;4771;48.726;9.006;2023-07-09T10:33:09;5.95;;;2.97;;
9465;SDS011;4771;48.726;9.006;2023-07-09T10:35:37;6.88;;;3.30;;
9465;SDS011;4771;48.726;9.006;2023-07-09T10:38:15;5.45;;;3.15;;
9465;SDS011;4771;48.726;9.006;2023-07-09T10:40:59;5.50;;;3.22;;
9465;SDS011;4771;48.726;9.006;2023-07-09T10:43:30;4.93;;;3.17;;
9465;SDS011;4771;48.726;9.006;2023-07-09T10:46:04;6.30;;;3.40;;
9465;SDS011;4771;48.726;9.006;2023-07-09T10:48:37;5.50;;;3.15;;
9465;SDS011;4771;48.726;9.006;2023-07-09T10:51:08;4.30;;;3.17;;
9465;SDS011;4771;48.726;9.006;2023-07-09T10:53:43;4.45;;;3.10;;
9465;SDS011;4771;48.726;9.006;2023-07-09T10:56:14;4.82;;;3.22;;
9465;SDS011;4771;48.726;9.006;2023-07-09T10:58:44;4.93;;;3.20;;
9465;SDS011;4771;48.726;9.006;2023-07-09T11:01:18;6.75;;;3.63;;
9465;SDS011;4771;48.726;9.006;2023-07-09T11:03:52;6.03;;;3.72;;
9465;SDS011;4771;48.726;9.006;2023-07-09T11:06:24;7.75;;;3.33;;
9465;SDS011;4771;48.726;9.006;2023-07-09T11:08:56;6.40;;;3.50;;
9465;SDS011;4771;48.726;9.006;2023-07-09T11:11:29;6.38;;;2.95;;
9465;SDS011;4771;48.726;9.006;2023-07-09T11:14:02;4.80;;;3.33;;
9465;SDS011;4771;48.726;9.006;2023-07-09T11:16:37;8.77;;;3.72;;
9465;SDS011;4771;48.726;9.006;2023-07-09T11:19:12;4.22;;;3.20;;
9465;SDS011;4771;48.726;9.006;2023-07-09T11:21:44;7.75;;;3.25;;
9465;SDS011;4771;48.726;9.006;2023-07-09T11:24:29;6.55;;;3.50;;
9465;SDS011;4771;48.726;9.006;2023-07-09T11:26:57;5.63;;;3.38;;
9465;SDS011;4771;48.726;9.006;2023-07-09T11:29:25;4.43;;;3.13;;
9465;SDS011;4771;48.726;9.006;2023-07-09T11:31:53;5.00;;;3.45;;
9465;SDS011;4771;48.726;9.006;2023-07-09T11:34:26;5.85;;;3.13;;
9465;SDS011;4771;48.726;9.006;2023-07-09T11:36:57;5.55;;;3.95;;
9465;SDS011;4771;48.726;9.006;2023-07-09T11:39:27;6.18;;;3.13;;
9465;SDS011;4771;48.726;9.006;2023-07-09T11:41:56;6.57;;;3.00;;
9465;SDS011;4771;48.726;9.006;2023-07-09T11:44:24;8.15;;;3.13;;
9465;SDS011;4771;48.726;9.006;2023-07-09T11:47:19;5.38;;;3.58;;
9465;SDS011;4771;48.726;9.006;2023-07-09T11:49:52;5.90;;;3.05;;
9465;SDS011;4771;48.726;9.006;2023-07-09T11:52:25;6.88;;;3.25;;
9465;SDS011;4771;48.726;9.006;2023-07-09T11:54:54;5.80;;;3.35;;
9465;SDS011;4771;48.726;9.006;2023-07-09T11:57:21;8.13;;;3.15;;
9465;SDS011;4771;48.726;9.006;2023-07-09T11:59:48;5.07;;;3.35;;
9465;SDS011;4771;48.726;9.006;2023-07-09T12:02:17;7.55;;;3.50;;
9465;SDS011;4771;48.726;9.006;2023-07-09T12:04:47;6.30;;;3.67;;
9465;SDS011;4771;48.726;9.006;2023-07-09T12:07:15;7.57;;;3.17;;
9465;SDS011;4771;48.726;9.006;2023-07-09T12:09:45;9.55;;;3.47;;
9465;SDS011;4771;48.726;9.006;2023-07-09T12:12:19;5.63;;;3.10;;
9465;SDS011;4771;48.726;9.006;2023-07-09T12:14:48;7.55;;;3.45;;
9465;SDS011;4771;48.726;9.006;2023-07-09T12:17:16;6.90;;;3.65;;
9465;SDS011;4771;48.726;9.006;2023-07-09T12:19:44;5.25;;;3.30;;
9465;SDS011;4771;48.726;9.006;2023-07-09T12:22:14;4.68;;;3.10;;
9465;SDS011;4771;48.726;9.006;2023-07-09T12:24:44;5.15;;;3.17;;
9465;SDS011;4771;48.726;9.006;2023-07-09T12:27:17;4.88;;;3.08;;
9465;SDS011;4771;48.726;9.006;2023-07-09T12:29:45;6.07;;;3.05;;
9465;SDS011;4771;48.726;9.006;2023-07-09T12:32:14;4.85;;;3.00;;
9465;SDS011;4771;48.726;9.006;2023-07-09T12:34:46;4.75;;;3.20;;
9465;SDS011;4771;48.726;9.006;2023-07-09T12:37:14;4.18;;;2.95;;
9465;SDS011;4771;48.726;9.006;2023-07-09T12:39:41;5.30;;;3.25;;
9465;SDS011;4771;48.726;9.006;2023-07-09T12:42:09;6.15;;;2.97;;
9465;SDS011;4771;48.726;9.006;2023-07-09T12:44:42;4.57;;;3.28;;
9465;SDS011;4771;48.726;9.006;2023-07-09T12:47:12;6.22;;;2.88;;
9465;SDS011;4771;48.726;9.006;2023-07-09T12:49:42;7.68;;;3.47;;
9465;SDS011;4771;48.726;9.006;2023-07-09T12:52:14;8.30;;;3.25;;
9465;SDS011;4771;48.726;9.006;2023-07-09T12:54:51;7.30;;;3.25;;
9465;SDS011;4771;48.726;9.006;2023-07-09T12:57:22;6.03;;;3.20;;
9465;SDS011;4771;48.726;9.006;2023-07-09T12:59:49;4.97;;;3.17;;
9465;SDS011;4771;48.726;9.006;2023-07-09T13:02:17;9.60;;;3.50;;
9465;SDS011;4771;48.726;9.006;2023-07-09T13:04:47;7.07;;;3.45;;
9465;SDS011;4771;48.726;9.006;2023-07-09T13:07:25;6.38;;;3.30;;
9465;SDS011;4771;48.726;9.006;2023-07-09T13:09:56;5.90;;;3.35;;
9465;SDS011;4771;48.726;9.006;2023-07-09T13:12:29;6.85;;;3.10;;
9465;SDS011;4771;48.726;9.006;2023-07-09T13:14:58;5.45;;;2.80;;
9465;SDS011;4771;48.726;9.006;2023-07-09T13:17:27;5.05;;;3.10;;
9465;SDS011;4771;48.726;9.006;2023-07-09T13:19:56;7.03;;;3.72;;
9465;SDS011;4771;48.726;9.006;2023-07-09T13:22:24;8.07;;;3.40;;
9465;SDS011;4771;48.726;9.006;2023-07-09T13:24:51;5.13;;;3.20;;
9465;SDS011;4771;48.726;9.006;2023-07-09T13:27:18;4.43;;;2.90;;
9465;SDS011;4771;48.726;9.006;2023-07-09T13:29:45;6.25;;;3.15;;
9465;SDS011;4771;48.726;9.006;2023-07-09T13:32:13;4.50;;;3.20;;
9465;SDS011;4771;48.726;9.006;2023-07-09T13:34:41;5.13;;;3.35;;
9465;SDS011;4771;48.726;9.006;2023-07-09T13:37:11;7.55;;;3.13;;
9465;SDS011;4771;48.726;9.006;2023-07-09T13:39:39;5.30;;;3.20;;
9465;SDS011;4771;48.726;9.006;2023-07-09T13:42:08;7.90;;;3.58;;
9465;SDS011;4771;48.726;9.006;2023-07-09T13:44:38;5.90;;;3.40;;
9465;SDS011;4771;48.726;9.006;2023-07-09T13:47:08;3.95;;;2.83;;
9465;SDS011;4771;48.726;9.006;2023-07-09T13:49:37;9.93;;;3.53;;
9465;SDS011;4771;48.726;9.006;2023-07-09T13:52:05;5.22;;;3.42;;
9465;SDS011;4771;48.726;9.006;2023-07-09T13:54:36;4.85;;;3.08;;
9465;SDS011;4771;48.726;9.006;2023-07-09T13:57:04;4.32;;;3.00;;
9465;SDS011;4771;48.726;9.006;2023-07-09T13:59:32;5.72;;;3.30;;
9465;SDS011;4771;48.726;9.006;2023-07-09T14:02:00;5.30;;;3.03;;
9465;SDS011;4771;48.726;9.006;2023-07-09T14:04:27;5.38;;;3.50;;
9465;SDS011;4771;48.726;9.006;2023-07-09T14:06:54;6.32;;;3.40;;
9465;SDS011;4771;48.726;9.006;2023-07-09T14:09:21;7.47;;;3.25;;
9465;SDS011;4771;48.726;9.006;2023-07-09T14:11:51;7.07;;;3.58;;
9465;SDS011;4771;48.726;9.006;2023-07-09T14:14:19;4.30;;;2.83;;
9465;SDS011;4771;48.726;9.006;2023-07-09T14:16:48;4.72;;;3.40;;
9465;SDS011;4771;48.726;9.006;2023-07-09T14:19:16;8.93;;;3.20;;
9465;SDS011;4771;48.726;9.006;2023-07-09T14:21:44;4.57;;;3.35;;
9465;SDS011;4771;48.726;9.006;2023-07-09T14:24:19;3.60;;;2.83;;
9465;SDS011;4771;48.726;9.006;2023-07-09T14:26:48;5.93;;;2.90;;
9465;SDS011;4771;48.726;9.006;2023-07-09T14:29:16;6.30;;;3.08;;
9465;SDS011;4771;48.726;9.006;2023-07-09T14:31:44;5.38;;;3.30;;
9465;SDS011;4771;48.726;9.006;2023-07-09T14:34:16;4.90;;;2.97;;
9465;SDS011;4771;48.726;9.006;2023-07-09T14:36:48;4.75;;;3.03;;
9465;SDS011;4771;48.726;9.006;2023-07-09T14:39:16;6.47;;;2.85;;
9465;SDS011;4771;48.726;9.006;2023-07-09T14:41:43;4.22;;;2.97;;
9465;SDS011;4771;48.726;9.006;2023-07-09T14:44:15;5.97;;;3.00;;
9465;SDS011;4771;48.726;9.006;2023-07-09T14:46:48;3.55;;;2.75;;
9465;SDS011;4771;48.726;9.006;2023-07-09T14:49:15;5.10;;;2.70;;
9465;SDS011;4771;48.726;9.006;2023-07-09T14:51:42;6.05;;;2.80;;
9465;SDS011;4771;48.726;9.006;2023-07-09T14:54:13;6.70;;;3.05;;
9465;SDS011;4771;48.726;9.006;2023-07-09T14:56:46;5.07;;;3.03;;
9465;SDS011;4771;48.726;9.006;2023-07-09T14:59:13;4.13;;;2.85;;
9465;SDS011;4771;48.726;9.006;2023-07-09T15:01:41;6.20;;;2.97;;
9465;SDS011;4771;48.726;9.006;2023-07-09T15:04:22;5.22;;;2.90;;
9465;SDS011;4771;48.726;9.006;2023-07-09T15:06:53;6.68;;;3.03;;
9465;SDS011;4771;48.726;9.006;2023-07-09T15:09:22;3.28;;;2.67;;
9465;SDS011;4771;48.726;9.006;2023-07-09T15:11:50;4.32;;;2.83;;
9465;SDS011;4771;48.726;9.006;2023-07-09T15:14:19;5.03;;;2.90;;
9465;SDS011;4771;48.726;9.006;2023-07-09T15:16:48;6.28;;;3.13;;
9465;SDS011;4771;48.726;9.006;2023-07-09T15:19:16;4.35;;;2.92;;
9465;SDS011;4771;48.726;9.006;2023-07-09T15:21:44;5.38;;;3.10;;
9465;SDS011;4771;48.726;9.006;2023-07-09T15:24:14;6.43;;;3.13;;
9465;SDS011;4771;48.726;9.006;2023-07-09T15:26:46;5.57;;;2.88;;
9465;SDS011;4771;48.726;9.006;2023-07-09T15:29:19;5.85;;;3.05;;
9465;SDS011;4771;48.726;9.006;2023-07-09T15:31:47;3.85;;;2.83;;